createdAt,value
2022-12-28T00:01:47.087Z,1015.86
2022-12-28T00:02:46.988Z,1015.90
2022-12-28T00:04:50.934Z,1015.92
2022-12-28T00:05:50.906Z,1015.96
2022-12-28T00:07:54.945Z,1015.93
2022-12-28T00:08:54.889Z,1015.95
2022-12-28T00:11:09.464Z,1015.95
2022-12-28T00:11:58.894Z,1015.85
2022-12-28T00:14:03.488Z,1015.86
2022-12-28T00:15:03.132Z,1015.88
2022-12-28T00:17:07.070Z,1015.81
2022-12-28T00:18:07.048Z,1015.84
2022-12-28T00:20:11.097Z,1015.75
2022-12-28T00:21:11.004Z,1015.79
2022-12-28T00:23:14.978Z,1015.74
2022-12-28T00:24:14.978Z,1015.74
2022-12-28T00:26:19.000Z,1015.71
2022-12-28T00:27:18.956Z,1015.71
2022-12-28T00:29:11.896Z,1015.67
2022-12-28T00:30:11.854Z,1015.62
2022-12-28T00:32:15.864Z,1015.63
2022-12-28T00:33:15.834Z,1015.66
2022-12-28T00:35:19.807Z,1015.66
2022-12-28T00:36:19.798Z,1015.63
2022-12-28T00:38:12.712Z,1015.62
2022-12-28T00:39:12.674Z,1015.65
2022-12-28T00:41:16.683Z,1015.71
2022-12-28T00:42:16.654Z,1015.72
2022-12-28T00:44:20.680Z,1015.80
2022-12-28T00:45:20.617Z,1015.77
2022-12-28T00:47:24.603Z,1015.63
2022-12-28T00:48:24.602Z,1015.57
2022-12-28T00:50:28.585Z,1015.50
2022-12-28T00:51:28.548Z,1015.50
2022-12-28T00:53:32.542Z,1015.48
2022-12-28T00:54:32.527Z,1015.54
2022-12-28T00:56:36.578Z,1015.55
2022-12-28T00:57:36.499Z,1015.54
2022-12-28T00:59:40.480Z,1015.51
2022-12-28T01:00:40.522Z,1015.52
2022-12-28T01:02:44.544Z,1015.48
2022-12-28T01:03:44.443Z,1015.49
2022-12-28T01:05:48.924Z,1015.53
2022-12-28T01:06:48.930Z,1015.48
2022-12-28T01:07:48.935Z,1015.47
2022-12-28T01:08:48.909Z,1015.44
2022-12-28T01:09:48.888Z,1015.44
2022-12-28T01:10:48.880Z,1015.45
2022-12-28T01:11:48.871Z,1015.40
2022-12-28T01:12:48.877Z,1015.42
2022-12-28T01:13:48.878Z,1015.41
2022-12-28T01:14:48.846Z,1015.46
2022-12-28T01:15:48.852Z,1015.42
2022-12-28T01:16:48.896Z,1015.41
2022-12-28T01:17:48.827Z,1015.43
2022-12-28T01:18:48.851Z,1015.49
2022-12-28T01:19:53.745Z,1015.46
2022-12-28T01:20:48.800Z,1015.39
2022-12-28T01:21:48.810Z,1015.35
2022-12-28T01:22:48.781Z,1015.37
2022-12-28T01:23:48.792Z,1015.39
2022-12-28T01:24:48.762Z,1015.33
2022-12-28T01:25:48.767Z,1015.36
2022-12-28T01:26:48.762Z,1015.31
2022-12-28T01:27:48.733Z,1015.28
2022-12-28T01:28:48.749Z,1015.27
2022-12-28T01:29:48.719Z,1015.23
2022-12-28T01:30:48.717Z,1015.18
2022-12-28T01:31:48.768Z,1015.12
2022-12-28T01:32:48.706Z,1015.17
2022-12-28T01:33:48.715Z,1015.17
2022-12-28T01:34:48.682Z,1015.16
2022-12-28T01:35:48.675Z,1015.14
2022-12-28T01:36:48.668Z,1015.14
2022-12-28T01:37:48.655Z,1015.09
2022-12-28T01:38:48.673Z,1015.10
2022-12-28T01:39:48.640Z,1015.09
2022-12-28T01:40:48.644Z,1015.05
2022-12-28T01:41:48.644Z,1015.03
2022-12-28T01:42:48.620Z,1015.03
2022-12-28T01:43:48.610Z,1015.05
2022-12-28T01:44:48.625Z,1015.05
2022-12-28T01:45:48.717Z,1015.01
2022-12-28T01:46:48.593Z,1014.94
2022-12-28T01:47:48.585Z,1014.95
2022-12-28T01:48:48.621Z,1014.97
2022-12-28T01:49:48.569Z,1015.00
2022-12-28T01:50:48.573Z,1014.88
2022-12-28T01:51:48.560Z,1014.92
2022-12-28T01:52:48.610Z,1014.91
2022-12-28T01:53:48.534Z,1014.91
2022-12-28T01:54:48.524Z,1014.82
2022-12-28T01:55:48.541Z,1014.83
2022-12-28T01:56:48.509Z,1014.73
2022-12-28T01:57:48.506Z,1014.78
2022-12-28T01:58:48.492Z,1014.70
2022-12-28T01:59:48.493Z,1014.68
2022-12-28T02:00:48.495Z,1014.64
2022-12-28T02:01:48.523Z,1014.64
2022-12-28T02:02:48.511Z,1014.61
2022-12-28T02:03:48.444Z,1014.66
2022-12-28T02:04:48.460Z,1014.64
2022-12-28T02:05:48.454Z,1014.63
2022-12-28T02:06:48.425Z,1014.61
2022-12-28T02:07:48.454Z,1014.57
2022-12-28T02:08:48.431Z,1014.56
2022-12-28T02:10:44.457Z,1014.47
2022-12-28T02:10:48.411Z,1014.47
2022-12-28T02:11:48.399Z,1014.42
2022-12-28T02:12:48.436Z,1014.41
2022-12-28T02:13:48.384Z,1014.40
2022-12-28T02:14:48.381Z,1014.37
2022-12-28T02:15:48.431Z,1014.37
2022-12-28T02:16:48.413Z,1014.34
2022-12-28T02:17:48.346Z,1014.33
2022-12-28T02:18:48.355Z,1014.29
2022-12-28T02:19:48.329Z,1014.28
2022-12-28T02:20:48.314Z,1014.28
2022-12-28T02:21:48.323Z,1014.21
2022-12-28T02:22:48.301Z,1014.20
2022-12-28T02:23:48.299Z,1014.13
2022-12-28T02:24:48.307Z,1014.19
2022-12-28T02:25:48.269Z,1014.15
2022-12-28T02:26:48.297Z,1014.10
2022-12-28T02:27:48.271Z,1014.11
2022-12-28T02:28:48.266Z,1014.09
2022-12-28T02:29:48.245Z,1014.03
2022-12-28T02:30:48.237Z,1014.06
2022-12-28T02:31:48.282Z,1014.05
2022-12-28T02:32:48.241Z,1013.99
2022-12-28T02:33:48.210Z,1013.96
2022-12-28T02:34:48.209Z,1013.97
2022-12-28T02:35:48.201Z,1013.93
2022-12-28T02:36:48.207Z,1013.90
2022-12-28T02:37:48.170Z,1013.88
2022-12-28T02:38:48.174Z,1013.88
2022-12-28T02:39:48.167Z,1013.85
2022-12-28T02:40:48.148Z,1013.82
2022-12-28T02:41:48.152Z,1013.83
2022-12-28T02:42:48.145Z,1013.82
2022-12-28T02:43:48.115Z,1013.80
2022-12-28T02:44:48.106Z,1013.79
2022-12-28T02:45:48.124Z,1013.77
2022-12-28T02:46:48.105Z,1013.76
2022-12-28T02:47:48.095Z,1013.72
2022-12-28T02:48:48.090Z,1013.68
2022-12-28T02:49:48.089Z,1013.62
2022-12-28T02:50:48.059Z,1013.60
2022-12-28T02:51:48.071Z,1013.61
2022-12-28T02:52:48.110Z,1013.62
2022-12-28T02:53:48.056Z,1013.60
2022-12-28T02:54:48.044Z,1013.59
2022-12-28T02:55:48.050Z,1013.59
2022-12-28T02:56:48.025Z,1013.57
2022-12-28T02:57:48.077Z,1013.58
2022-12-28T02:58:48.009Z,1013.60
2022-12-28T02:59:48.272Z,1013.54
2022-12-28T03:00:48.041Z,1013.51
2022-12-28T03:01:48.101Z,1013.46
2022-12-28T03:02:48.175Z,1013.41
2022-12-28T03:03:47.973Z,1013.37
2022-12-28T03:04:48.109Z,1013.35
2022-12-28T03:05:47.962Z,1013.30
2022-12-28T03:06:48.046Z,1013.28
2022-12-28T03:07:47.917Z,1013.27
2022-12-28T03:08:47.960Z,1013.24
2022-12-28T03:09:48.384Z,1013.20
2022-12-28T03:10:47.917Z,1013.16
2022-12-28T03:11:47.953Z,1013.09
2022-12-28T03:12:47.905Z,1013.08
2022-12-28T03:13:47.878Z,1013.08
2022-12-28T03:14:47.894Z,1013.04
2022-12-28T03:15:47.890Z,1013.02
2022-12-28T03:16:47.851Z,1013.05
2022-12-28T03:17:47.830Z,1013.09
2022-12-28T03:18:47.831Z,1013.05
2022-12-28T03:19:47.829Z,1013.00
2022-12-28T03:20:47.823Z,1012.97
2022-12-28T03:21:47.850Z,1012.97
2022-12-28T03:22:47.827Z,1012.95
2022-12-28T03:23:47.789Z,1012.91
2022-12-28T03:24:47.795Z,1012.95
2022-12-28T03:25:47.768Z,1012.99
2022-12-28T03:26:47.776Z,1012.93
2022-12-28T03:27:47.755Z,1012.92
2022-12-28T03:28:47.779Z,1012.94
2022-12-28T03:29:47.746Z,1012.93
2022-12-28T03:30:47.750Z,1012.93
2022-12-28T03:31:47.774Z,1012.89
2022-12-28T03:32:47.732Z,1012.91
2022-12-28T03:33:47.698Z,1012.94
2022-12-28T03:34:47.781Z,1012.86
2022-12-28T03:35:47.714Z,1012.87
2022-12-28T03:36:47.762Z,1012.85
2022-12-28T03:37:47.671Z,1012.80
2022-12-28T03:38:47.668Z,1012.76
2022-12-28T03:39:47.678Z,1012.82
2022-12-28T03:40:47.657Z,1012.73
2022-12-28T03:41:47.648Z,1012.77
2022-12-28T03:42:47.652Z,1012.72
2022-12-28T03:43:47.668Z,1012.72
2022-12-28T03:44:47.615Z,1012.72
2022-12-28T03:45:47.731Z,1012.70
2022-12-28T03:46:47.632Z,1012.59
2022-12-28T03:47:47.680Z,1012.56
2022-12-28T03:48:47.589Z,1012.50
2022-12-28T03:49:47.583Z,1012.48
2022-12-28T03:50:47.564Z,1012.50
2022-12-28T03:51:47.578Z,1012.38
2022-12-28T03:52:47.549Z,1012.46
2022-12-28T03:53:47.587Z,1012.36
2022-12-28T03:54:47.566Z,1012.41
2022-12-28T03:55:47.527Z,1012.39
2022-12-28T03:56:47.526Z,1012.35
2022-12-28T03:57:47.508Z,1012.35
2022-12-28T03:58:47.497Z,1012.35
2022-12-28T03:59:47.489Z,1012.31
2022-12-28T04:00:47.490Z,1012.39
2022-12-28T04:01:47.638Z,1012.40
2022-12-28T04:02:47.583Z,1012.38
2022-12-28T04:03:47.466Z,1012.42
2022-12-28T04:04:47.446Z,1012.37
2022-12-28T04:05:47.434Z,1012.39
2022-12-28T04:06:47.432Z,1012.32
2022-12-28T04:07:47.448Z,1012.27
2022-12-28T04:08:47.452Z,1012.26
2022-12-28T04:09:47.449Z,1012.27
2022-12-28T04:10:47.434Z,1012.24
2022-12-28T04:11:47.382Z,1012.25
2022-12-28T04:12:47.380Z,1012.21
2022-12-28T04:13:47.375Z,1012.23
2022-12-28T04:14:47.376Z,1012.20
2022-12-28T04:15:47.395Z,1012.16
2022-12-28T04:16:47.389Z,1012.10
2022-12-28T04:17:47.341Z,1012.10
2022-12-28T04:18:47.338Z,1012.09
2022-12-28T04:19:47.329Z,1012.05
2022-12-28T04:20:47.317Z,1012.05
2022-12-28T04:21:47.306Z,1012.02
2022-12-28T04:22:47.295Z,1011.97
2022-12-28T04:23:47.286Z,1011.95
2022-12-28T04:24:47.309Z,1011.92
2022-12-28T04:25:47.269Z,1011.94
2022-12-28T04:26:47.260Z,1011.89
2022-12-28T04:27:47.267Z,1011.83
2022-12-28T04:28:47.267Z,1011.84
2022-12-28T04:29:47.259Z,1011.81
2022-12-28T04:30:47.245Z,1011.80
2022-12-28T04:31:47.287Z,1011.82
2022-12-28T04:32:47.216Z,1011.79
2022-12-28T04:33:47.221Z,1011.77
2022-12-28T04:34:48.892Z,1011.78
2022-12-28T04:35:47.207Z,1011.79
2022-12-28T04:36:47.213Z,1011.74
2022-12-28T04:37:47.174Z,1011.78
2022-12-28T04:38:47.159Z,1011.73
2022-12-28T04:39:55.223Z,1011.72
2022-12-28T04:40:47.182Z,1011.72
2022-12-28T04:41:47.146Z,1011.66
2022-12-28T04:42:47.130Z,1011.65
2022-12-28T04:43:47.138Z,1011.64
2022-12-28T04:44:47.105Z,1011.57
2022-12-28T04:45:47.102Z,1011.62
2022-12-28T04:46:47.172Z,1011.61
2022-12-28T04:47:47.094Z,1011.66
2022-12-28T04:48:47.100Z,1011.62
2022-12-28T04:49:47.088Z,1011.59
2022-12-28T04:50:47.072Z,1011.60
2022-12-28T04:51:47.056Z,1011.60
2022-12-28T04:52:47.044Z,1011.58
2022-12-28T04:53:47.038Z,1011.64
2022-12-28T04:54:47.066Z,1011.59
2022-12-28T04:55:47.031Z,1011.60
2022-12-28T04:56:47.025Z,1011.60
2022-12-28T04:57:47.003Z,1011.64
2022-12-28T04:58:47.056Z,1011.65
2022-12-28T04:59:46.978Z,1011.65
2022-12-28T05:00:46.993Z,1011.64
2022-12-28T05:01:47.126Z,1011.65
2022-12-28T05:02:47.088Z,1011.66
2022-12-28T05:03:52.695Z,1011.63
2022-12-28T05:04:46.939Z,1011.62
2022-12-28T05:05:46.942Z,1011.61
2022-12-28T05:06:46.921Z,1011.61
2022-12-28T05:07:46.932Z,1011.55
2022-12-28T05:08:46.929Z,1011.52
2022-12-28T05:09:46.929Z,1011.51
2022-12-28T05:10:46.893Z,1011.49
2022-12-28T05:11:46.884Z,1011.52
2022-12-28T05:12:46.878Z,1011.55
2022-12-28T05:13:46.870Z,1011.52
2022-12-28T05:14:46.861Z,1011.50
2022-12-28T05:15:46.881Z,1011.50
2022-12-28T05:16:46.882Z,1011.49
2022-12-28T05:17:46.836Z,1011.50
2022-12-28T05:18:46.816Z,1011.52
2022-12-28T05:19:46.820Z,1011.52
2022-12-28T05:20:46.801Z,1011.50
2022-12-28T05:21:46.805Z,1011.52
2022-12-28T05:22:46.830Z,1011.58
2022-12-28T05:23:46.807Z,1011.47
2022-12-28T05:24:46.773Z,1011.39
2022-12-28T05:25:46.765Z,1011.42
2022-12-28T05:26:46.758Z,1011.43
2022-12-28T05:27:46.787Z,1011.42
2022-12-28T05:28:46.759Z,1011.46
2022-12-28T05:29:46.777Z,1011.38
2022-12-28T05:30:46.725Z,1011.42
2022-12-28T05:31:46.740Z,1011.36
2022-12-28T05:32:46.709Z,1011.37
2022-12-28T05:33:46.709Z,1011.34
2022-12-28T05:34:46.691Z,1011.36
2022-12-28T05:35:46.680Z,1011.29
2022-12-28T05:36:46.683Z,1011.23
2022-12-28T05:37:46.722Z,1011.28
2022-12-28T05:38:46.656Z,1011.30
2022-12-28T05:39:46.646Z,1011.28
2022-12-28T05:40:46.648Z,1011.32
2022-12-28T05:41:46.668Z,1011.31
2022-12-28T05:42:51.428Z,1011.25
2022-12-28T05:43:46.626Z,1011.28
2022-12-28T05:44:46.637Z,1011.22
2022-12-28T05:45:46.603Z,1011.19
2022-12-28T05:46:46.684Z,1011.22
2022-12-28T05:47:46.598Z,1011.13
2022-12-28T05:48:46.586Z,1011.13
2022-12-28T05:49:46.576Z,1011.09
2022-12-28T05:50:46.570Z,1011.10
2022-12-28T05:51:46.538Z,1011.06
2022-12-28T05:52:46.539Z,1011.06
2022-12-28T05:53:46.539Z,1011.05
2022-12-28T05:54:46.528Z,1010.98
2022-12-28T05:55:46.528Z,1010.99
2022-12-28T05:56:46.507Z,1010.97
2022-12-28T05:57:46.530Z,1010.98
2022-12-28T05:58:46.491Z,1010.95
2022-12-28T05:59:46.481Z,1010.91
2022-12-28T06:00:46.479Z,1010.90
2022-12-28T06:01:46.567Z,1010.88
2022-12-28T06:02:46.536Z,1010.89
2022-12-28T06:03:46.465Z,1010.79
2022-12-28T06:04:46.424Z,1010.84
2022-12-28T06:05:46.422Z,1010.87
2022-12-28T06:06:46.434Z,1010.83
2022-12-28T06:07:46.424Z,1010.77
2022-12-28T06:08:46.404Z,1010.79
2022-12-28T06:09:46.409Z,1010.74
2022-12-28T06:10:46.381Z,1010.77
2022-12-28T06:11:46.376Z,1010.78
2022-12-28T06:12:46.364Z,1010.75
2022-12-28T06:13:46.362Z,1010.77
2022-12-28T06:14:46.358Z,1010.77
2022-12-28T06:15:46.346Z,1010.80
2022-12-28T06:16:46.508Z,1010.75
2022-12-28T06:17:46.333Z,1010.73
2022-12-28T06:18:46.309Z,1010.69
2022-12-28T06:19:46.323Z,1010.67
2022-12-28T06:20:46.290Z,1010.70
2022-12-28T06:21:46.295Z,1010.63
2022-12-28T06:22:46.280Z,1010.62
2022-12-28T06:23:46.284Z,1010.57
2022-12-28T06:24:46.280Z,1010.54
2022-12-28T06:25:46.281Z,1010.55
2022-12-28T06:26:46.255Z,1010.60
2022-12-28T06:27:46.243Z,1010.53
2022-12-28T06:28:46.256Z,1010.53
2022-12-28T06:29:46.257Z,1010.57
2022-12-28T06:30:52.146Z,1010.57
2022-12-28T06:31:46.244Z,1010.52
2022-12-28T06:32:46.203Z,1010.51
2022-12-28T06:33:46.203Z,1010.48
2022-12-28T06:34:46.187Z,1010.52
2022-12-28T06:35:46.169Z,1010.47
2022-12-28T06:36:46.169Z,1010.47
2022-12-28T06:37:46.167Z,1010.45
2022-12-28T06:38:46.142Z,1010.40
2022-12-28T06:39:46.132Z,1010.37
2022-12-28T06:41:12.291Z,1010.36
2022-12-28T06:41:46.128Z,1010.40
2022-12-28T06:42:46.113Z,1010.41
2022-12-28T06:43:46.147Z,1010.49
2022-12-28T06:44:46.109Z,1010.43
2022-12-28T06:45:46.155Z,1010.43
2022-12-28T06:46:46.082Z,1010.42
2022-12-28T06:47:46.077Z,1010.36
2022-12-28T06:48:46.079Z,1010.39
2022-12-28T06:49:46.067Z,1010.37
2022-12-28T06:50:46.044Z,1010.36
2022-12-28T06:51:46.051Z,1010.29
2022-12-28T06:52:46.028Z,1010.34
2022-12-28T06:53:46.019Z,1010.31
2022-12-28T06:54:46.019Z,1010.28
2022-12-28T06:55:46.015Z,1010.23
2022-12-28T06:56:45.989Z,1010.23
2022-12-28T06:57:46.036Z,1010.14
2022-12-28T06:58:46.003Z,1010.13
2022-12-28T06:59:45.994Z,1010.21
2022-12-28T07:00:45.987Z,1010.12
2022-12-28T07:01:46.125Z,1010.05
2022-12-28T07:02:46.011Z,1010.11
2022-12-28T07:03:45.960Z,1010.12
2022-12-28T07:04:45.935Z,1010.11
2022-12-28T07:05:45.935Z,1010.11
2022-12-28T07:06:45.922Z,1010.05
2022-12-28T07:07:45.902Z,1010.04
2022-12-28T07:08:45.919Z,1010.03
2022-12-28T07:09:45.910Z,1010.01
2022-12-28T07:10:45.885Z,1009.98
2022-12-28T07:11:45.872Z,1010.06
2022-12-28T07:12:45.867Z,1010.01
2022-12-28T07:13:45.861Z,1010.01
2022-12-28T07:14:45.847Z,1009.95
2022-12-28T07:15:45.839Z,1009.91
2022-12-28T07:16:45.852Z,1009.88
2022-12-28T07:17:45.820Z,1009.92
2022-12-28T07:18:45.825Z,1009.92
2022-12-28T07:19:45.826Z,1009.83
2022-12-28T07:20:45.795Z,1009.85
2022-12-28T07:21:45.794Z,1009.83
2022-12-28T07:22:45.777Z,1009.87
2022-12-28T07:23:45.770Z,1009.81
2022-12-28T07:24:45.787Z,1009.90
2022-12-28T07:25:45.768Z,1009.91
2022-12-28T07:26:45.742Z,1009.80
2022-12-28T07:27:45.737Z,1009.81
2022-12-28T07:28:45.744Z,1009.80
2022-12-28T07:29:45.721Z,1009.71
2022-12-28T07:30:45.726Z,1009.74
2022-12-28T07:31:46.127Z,1009.73
2022-12-28T07:32:45.706Z,1009.79
2022-12-28T07:33:45.692Z,1009.78
2022-12-28T07:34:45.678Z,1009.71
2022-12-28T07:35:45.666Z,1009.73
2022-12-28T07:36:45.664Z,1009.70
2022-12-28T07:37:45.686Z,1009.65
2022-12-28T07:38:45.659Z,1009.62
2022-12-28T07:39:45.659Z,1009.69
2022-12-28T07:40:45.637Z,1009.59
2022-12-28T07:41:45.616Z,1009.63
2022-12-28T07:42:45.645Z,1009.61
2022-12-28T07:43:45.601Z,1009.57
2022-12-28T07:44:48.948Z,1009.50
2022-12-28T07:45:45.600Z,1009.50
2022-12-28T07:46:45.592Z,1009.47
2022-12-28T07:47:45.571Z,1009.53
2022-12-28T07:48:45.565Z,1009.46
2022-12-28T07:49:45.557Z,1009.45
2022-12-28T07:50:45.550Z,1009.43
2022-12-28T07:51:45.541Z,1009.44
2022-12-28T07:52:45.537Z,1009.46
2022-12-28T07:53:45.526Z,1009.42
2022-12-28T07:54:45.527Z,1009.42
2022-12-28T07:55:45.518Z,1009.46
2022-12-28T07:56:45.484Z,1009.51
2022-12-28T07:57:45.498Z,1009.43
2022-12-28T07:59:48.281Z,1009.40
2022-12-28T08:00:48.261Z,1009.45
2022-12-28T08:02:52.264Z,1009.39
2022-12-28T08:03:52.257Z,1009.45
2022-12-28T08:05:56.303Z,1009.44
2022-12-28T08:06:56.291Z,1009.43
2022-12-28T08:08:49.246Z,1009.39
2022-12-28T08:09:49.204Z,1009.37
2022-12-28T08:11:53.180Z,1009.41
2022-12-28T08:12:53.163Z,1009.43
2022-12-28T08:14:57.166Z,1009.40
2022-12-28T08:15:57.200Z,1009.44
2022-12-28T08:17:50.234Z,1009.37
2022-12-28T08:18:50.233Z,1009.33
2022-12-28T08:20:43.355Z,1009.28
2022-12-28T08:21:43.341Z,1009.23
2022-12-28T08:23:47.768Z,1009.25
2022-12-28T08:24:47.309Z,1009.24
2022-12-28T08:26:40.441Z,1009.23
2022-12-28T08:27:40.402Z,1009.21
2022-12-28T08:29:44.432Z,1009.21
2022-12-28T08:30:44.400Z,1009.21
2022-12-28T08:32:48.405Z,1009.17
2022-12-28T08:33:48.420Z,1009.12
2022-12-28T08:35:41.566Z,1009.05
2022-12-28T08:36:41.475Z,1009.13
2022-12-28T08:38:34.412Z,1009.03
2022-12-28T08:39:34.400Z,1008.99
2022-12-28T08:41:27.731Z,1008.95
2022-12-28T08:42:27.448Z,1008.96
2022-12-28T08:44:20.602Z,1008.89
2022-12-28T08:45:20.567Z,1008.87
2022-12-28T08:47:13.769Z,1008.90
2022-12-28T08:48:13.676Z,1008.89
2022-12-28T08:50:20.084Z,1008.94
2022-12-28T08:51:17.651Z,1008.94
2022-12-28T08:53:22.189Z,1008.97
2022-12-28T08:54:22.135Z,1008.99
2022-12-28T08:55:22.122Z,1008.95
2022-12-28T08:56:22.120Z,1008.99
2022-12-28T08:57:22.129Z,1008.94
2022-12-28T08:58:22.106Z,1008.98
2022-12-28T08:59:22.100Z,1008.97
2022-12-28T09:00:22.099Z,1008.93
2022-12-28T09:01:22.271Z,1008.90
2022-12-28T09:02:22.306Z,1008.88
2022-12-28T09:03:22.122Z,1008.89
2022-12-28T09:04:22.076Z,1008.91
2022-12-28T09:05:22.052Z,1008.85
2022-12-28T09:06:22.070Z,1008.83
2022-12-28T09:07:22.059Z,1008.83
2022-12-28T09:08:22.032Z,1008.80
2022-12-28T09:09:22.068Z,1008.83
2022-12-28T09:10:22.084Z,1008.85
2022-12-28T09:11:22.004Z,1008.78
2022-12-28T09:12:21.995Z,1008.83
2022-12-28T09:13:22.001Z,1008.87
2022-12-28T09:14:24.277Z,1008.90
2022-12-28T09:15:21.985Z,1008.84
2022-12-28T09:16:22.048Z,1008.81
2022-12-28T09:17:21.965Z,1008.84
2022-12-28T09:18:21.958Z,1008.81
2022-12-28T09:19:22.014Z,1008.80
2022-12-28T09:20:21.993Z,1008.76
2022-12-28T09:21:21.949Z,1008.80
2022-12-28T09:22:21.930Z,1008.73
2022-12-28T09:23:21.915Z,1008.73
2022-12-28T09:24:21.986Z,1008.67
2022-12-28T09:25:21.906Z,1008.65
2022-12-28T09:26:21.898Z,1008.63
2022-12-28T09:27:21.876Z,1008.67
2022-12-28T09:28:21.878Z,1008.65
2022-12-28T09:29:21.875Z,1008.66
2022-12-28T09:30:21.858Z,1008.58
2022-12-28T09:31:21.894Z,1008.63
2022-12-28T09:32:21.845Z,1008.63
2022-12-28T09:33:21.844Z,1008.56
2022-12-28T09:34:38.310Z,1008.56
2022-12-28T09:35:21.828Z,1008.53
2022-12-28T09:36:21.838Z,1008.48
2022-12-28T09:37:21.816Z,1008.42
2022-12-28T09:38:21.794Z,1008.45
2022-12-28T09:39:21.846Z,1008.45
2022-12-28T09:40:21.838Z,1008.44
2022-12-28T09:41:21.770Z,1008.38
2022-12-28T09:42:21.815Z,1008.41
2022-12-28T09:43:21.762Z,1008.42
2022-12-28T09:44:21.755Z,1008.41
2022-12-28T09:45:21.752Z,1008.44
2022-12-28T09:46:21.773Z,1008.37
2022-12-28T09:47:21.746Z,1008.34
2022-12-28T09:48:21.724Z,1008.37
2022-12-28T09:49:21.735Z,1008.36
2022-12-28T09:50:21.701Z,1008.31
2022-12-28T09:51:21.697Z,1008.29
2022-12-28T09:52:21.698Z,1008.21
2022-12-28T09:53:21.691Z,1008.27
2022-12-28T09:54:21.694Z,1008.29
2022-12-28T09:55:21.674Z,1008.23
2022-12-28T09:56:21.667Z,1008.21
2022-12-28T09:57:21.647Z,1008.27
2022-12-28T09:58:21.638Z,1008.22
2022-12-28T09:59:21.633Z,1008.23
2022-12-28T10:00:21.629Z,1008.27
2022-12-28T10:01:21.707Z,1008.26
2022-12-28T10:02:21.682Z,1008.27
2022-12-28T10:03:21.625Z,1008.23
2022-12-28T10:04:21.615Z,1008.15
2022-12-28T10:05:21.601Z,1008.16
2022-12-28T10:06:21.582Z,1008.15
2022-12-28T10:07:21.587Z,1008.11
2022-12-28T10:08:21.571Z,1008.15
2022-12-28T10:09:21.569Z,1008.14
2022-12-28T10:10:21.557Z,1008.13
2022-12-28T10:11:21.565Z,1008.09
2022-12-28T10:12:21.543Z,1008.08
2022-12-28T10:13:52.991Z,1008.03
2022-12-28T10:14:21.523Z,1008.06
2022-12-28T10:15:21.517Z,1008.07
2022-12-28T10:16:21.738Z,1008.05
2022-12-28T10:17:21.522Z,1008.01
2022-12-28T10:18:21.489Z,1007.94
2022-12-28T10:19:21.500Z,1008.01
2022-12-28T10:20:21.488Z,1008.01
2022-12-28T10:21:25.391Z,1008.00
2022-12-28T10:22:21.487Z,1007.99
2022-12-28T10:23:21.464Z,1008.00
2022-12-28T10:24:31.353Z,1007.97
2022-12-28T10:25:21.455Z,1007.98
2022-12-28T10:26:21.462Z,1008.02
2022-12-28T10:27:21.428Z,1007.97
2022-12-28T10:28:21.433Z,1008.00
2022-12-28T10:29:21.421Z,1007.95
2022-12-28T10:30:21.422Z,1008.02
2022-12-28T10:31:21.460Z,1008.02
2022-12-28T10:32:21.424Z,1007.96
2022-12-28T10:33:21.395Z,1007.98
2022-12-28T10:34:21.405Z,1008.00
2022-12-28T10:35:21.389Z,1008.01
2022-12-28T10:36:22.290Z,1007.93
2022-12-28T10:37:21.360Z,1007.86
2022-12-28T10:38:21.360Z,1007.88
2022-12-28T10:39:21.348Z,1007.85
2022-12-28T10:40:21.362Z,1007.80
2022-12-28T10:41:21.344Z,1007.81
2022-12-28T10:42:21.326Z,1007.77
2022-12-28T10:43:21.324Z,1007.78
2022-12-28T10:44:39.084Z,1007.74
2022-12-28T10:45:21.334Z,1007.74
2022-12-28T10:46:21.360Z,1007.69
2022-12-28T10:47:21.287Z,1007.71
2022-12-28T10:48:21.285Z,1007.72
2022-12-28T10:49:21.309Z,1007.70
2022-12-28T10:50:37.125Z,1007.70
2022-12-28T10:51:21.259Z,1007.60
2022-12-28T10:52:21.262Z,1007.69
2022-12-28T10:53:21.239Z,1007.64
2022-12-28T10:54:28.132Z,1007.67
2022-12-28T10:55:21.227Z,1007.59
2022-12-28T10:56:21.246Z,1007.65
2022-12-28T10:57:21.222Z,1007.66
2022-12-28T10:58:30.781Z,1007.63
2022-12-28T10:59:21.201Z,1007.66
2022-12-28T11:00:21.195Z,1007.64
2022-12-28T11:01:21.279Z,1007.58
2022-12-28T11:02:21.290Z,1007.58
2022-12-28T11:03:21.280Z,1007.60
2022-12-28T11:04:21.194Z,1007.51
2022-12-28T11:05:21.202Z,1007.53
2022-12-28T11:06:26.833Z,1007.53
2022-12-28T11:07:21.156Z,1007.53
2022-12-28T11:08:21.134Z,1007.49
2022-12-28T11:09:21.149Z,1007.48
2022-12-28T11:10:21.144Z,1007.51
2022-12-28T11:11:21.115Z,1007.49
2022-12-28T11:12:21.111Z,1007.50
2022-12-28T11:13:22.212Z,1007.49
2022-12-28T11:14:21.107Z,1007.53
2022-12-28T11:15:21.116Z,1007.45
2022-12-28T11:16:21.131Z,1007.48
2022-12-28T11:17:21.092Z,1007.52
2022-12-28T11:18:21.082Z,1007.46
2022-12-28T11:19:21.074Z,1007.44
2022-12-28T11:20:21.066Z,1007.49
2022-12-28T11:21:21.051Z,1007.44
2022-12-28T11:22:21.080Z,1007.43
2022-12-28T11:23:21.089Z,1007.53
2022-12-28T11:24:21.040Z,1007.45
2022-12-28T11:25:21.006Z,1007.41
2022-12-28T11:26:21.010Z,1007.38
2022-12-28T11:27:21.013Z,1007.39
2022-12-28T11:28:22.247Z,1007.34
2022-12-28T11:29:20.992Z,1007.37
2022-12-28T11:30:21.113Z,1007.34
2022-12-28T11:31:21.037Z,1007.32
2022-12-28T11:32:21.002Z,1007.32
2022-12-28T11:33:20.962Z,1007.25
2022-12-28T11:34:20.958Z,1007.31
2022-12-28T11:35:20.962Z,1007.31
2022-12-28T11:36:20.958Z,1007.27
2022-12-28T11:37:20.931Z,1007.23
2022-12-28T11:38:20.921Z,1007.29
2022-12-28T11:39:20.930Z,1007.25
2022-12-28T11:40:20.930Z,1007.27
2022-12-28T11:41:20.913Z,1007.25
2022-12-28T11:42:38.917Z,1007.24
2022-12-28T11:43:20.908Z,1007.24
2022-12-28T11:44:20.900Z,1007.25
2022-12-28T11:45:20.925Z,1007.22
2022-12-28T11:46:20.885Z,1007.20
2022-12-28T11:47:26.458Z,1007.26
2022-12-28T11:48:20.858Z,1007.19
2022-12-28T11:49:20.855Z,1007.18
2022-12-28T11:50:20.893Z,1007.16
2022-12-28T11:51:20.854Z,1007.17
2022-12-28T11:52:20.843Z,1007.16
2022-12-28T11:53:20.842Z,1007.08
2022-12-28T11:54:20.825Z,1007.13
2022-12-28T11:55:20.804Z,1007.09
2022-12-28T11:56:20.816Z,1007.08
2022-12-28T11:57:20.812Z,1007.07
2022-12-28T11:58:27.960Z,1007.01
2022-12-28T12:00:24.849Z,1007.01
2022-12-28T12:01:24.808Z,1007.01
2022-12-28T12:03:29.290Z,1006.96
2022-12-28T12:04:28.746Z,1006.94
2022-12-28T12:06:39.776Z,1006.91
2022-12-28T12:07:32.746Z,1006.93
2022-12-28T12:09:25.839Z,1006.94
2022-12-28T12:10:25.708Z,1006.93
2022-12-28T12:12:29.722Z,1006.95
2022-12-28T12:13:29.700Z,1006.92
2022-12-28T12:15:34.214Z,1006.92
2022-12-28T12:16:33.712Z,1006.88
2022-12-28T12:17:36.880Z,1006.89
2022-12-28T12:18:33.656Z,1006.84
2022-12-28T12:19:33.649Z,1006.86
2022-12-28T12:20:33.762Z,1006.84
2022-12-28T12:21:33.609Z,1006.81
2022-12-28T12:22:33.606Z,1006.84
2022-12-28T12:23:33.657Z,1006.83
2022-12-28T12:24:33.592Z,1006.81
2022-12-28T12:25:33.601Z,1006.78
2022-12-28T12:26:33.587Z,1006.77
2022-12-28T12:27:33.637Z,1006.81
2022-12-28T12:28:33.574Z,1006.76
2022-12-28T12:29:33.590Z,1006.73
2022-12-28T12:30:33.588Z,1006.70
2022-12-28T12:31:33.585Z,1006.78
2022-12-28T12:32:33.534Z,1006.71
2022-12-28T12:33:33.547Z,1006.66
2022-12-28T12:34:33.522Z,1006.63
2022-12-28T12:35:33.524Z,1006.61
2022-12-28T12:36:33.525Z,1006.72
2022-12-28T12:37:33.519Z,1006.61
2022-12-28T12:38:33.544Z,1006.63
2022-12-28T12:39:33.506Z,1006.57
2022-12-28T12:40:33.500Z,1006.59
2022-12-28T12:41:33.529Z,1006.64
2022-12-28T12:42:33.484Z,1006.65
2022-12-28T12:43:33.494Z,1006.70
2022-12-28T12:44:33.470Z,1006.68
2022-12-28T12:45:33.492Z,1006.76
2022-12-28T12:46:33.512Z,1006.63
2022-12-28T12:47:33.477Z,1006.69
2022-12-28T12:48:33.438Z,1006.66
2022-12-28T12:49:33.451Z,1006.71
2022-12-28T12:50:33.427Z,1006.63
2022-12-28T12:51:33.429Z,1006.64
2022-12-28T12:52:35.261Z,1006.61
2022-12-28T12:53:33.434Z,1006.58